createdAt,value
2022-11-05T00:01:49.681Z,99554.84
2022-11-05T00:04:34.972Z,99561.38
2022-11-05T00:07:31.346Z,99548.75
2022-11-05T00:10:04.137Z,99556.00
2022-11-05T00:12:49.548Z,99556.16
2022-11-05T00:15:34.814Z,99553.06
2022-11-05T00:18:01.318Z,99548.16
2022-11-05T00:20:27.858Z,99548.31
2022-11-05T00:23:23.329Z,99546.47
2022-11-05T00:26:04.177Z,99536.16
2022-11-05T00:28:31.927Z,99534.97
2022-11-05T00:31:06.028Z,99533.88
2022-11-05T00:33:32.848Z,99542.41
2022-11-05T00:35:59.336Z,99534.13
2022-11-05T00:38:25.833Z,99533.25
2022-11-05T00:40:52.330Z,99533.63
2022-11-05T00:43:37.440Z,99553.75
2022-11-05T00:46:03.968Z,99553.44
2022-11-05T00:48:49.037Z,99548.91
2022-11-05T00:51:15.840Z,99548.66
2022-11-05T00:53:42.711Z,99554.50
2022-11-05T00:56:09.368Z,99564.72
2022-11-05T00:58:36.067Z,99562.16
2022-11-05T01:01:03.574Z,99553.97
2022-11-05T01:03:33.488Z,99566.41
2022-11-05T01:06:06.385Z,99563.03
2022-11-05T01:08:32.963Z,99559.63
2022-11-05T01:10:59.764Z,99560.63
2022-11-05T01:13:28.868Z,99552.03
2022-11-05T01:15:56.664Z,99564.59
2022-11-05T01:18:25.359Z,99557.69
2022-11-05T01:20:54.595Z,99556.00
2022-11-05T01:23:21.485Z,99557.13
2022-11-05T01:25:48.244Z,99564.06
2022-11-05T01:28:14.770Z,99562.97
2022-11-05T01:30:41.345Z,99565.94
2022-11-05T01:33:08.139Z,99563.56
2022-11-05T01:35:34.845Z,99563.41
2022-11-05T01:38:01.406Z,99568.94
2022-11-05T01:40:27.904Z,99574.31
2022-11-05T01:42:54.406Z,99571.91
2022-11-05T01:45:26.342Z,99589.00
2022-11-05T01:47:57.793Z,99591.47
2022-11-05T01:50:36.120Z,99591.78
2022-11-05T01:53:28.795Z,99586.69
2022-11-05T01:56:07.177Z,99590.22
2022-11-05T01:58:42.560Z,99600.97
2022-11-05T02:01:09.417Z,99599.69
2022-11-05T02:03:36.089Z,99606.31
2022-11-05T02:06:03.305Z,99601.25
2022-11-05T02:09:07.275Z,99596.84
2022-11-05T02:11:33.824Z,99602.50
2022-11-05T02:14:01.074Z,99595.59
2022-11-05T02:16:43.843Z,99594.59
2022-11-05T02:20:01.334Z,99600.41
2022-11-05T02:22:55.093Z,99595.09
2022-11-05T02:25:40.761Z,99605.09
2022-11-05T02:28:25.513Z,99598.47
2022-11-05T02:31:02.375Z,99593.38
2022-11-05T02:33:56.811Z,99604.97
2022-11-05T02:36:26.006Z,99606.81
2022-11-05T02:39:11.996Z,99608.25
2022-11-05T02:41:51.657Z,99608.97
2022-11-05T02:44:27.472Z,99610.50
2022-11-05T02:47:18.307Z,99613.59
2022-11-05T02:49:54.005Z,99611.75
2022-11-05T02:52:29.132Z,99612.75
2022-11-05T02:55:23.516Z,99617.13
2022-11-05T02:57:50.019Z,99622.22
2022-11-05T03:00:44.497Z,99625.16
2022-11-05T03:03:36.717Z,99626.47
2022-11-05T03:06:22.941Z,99618.81
2022-11-05T03:08:54.289Z,99619.94
2022-11-05T03:11:26.005Z,99619.22
2022-11-05T03:14:12.816Z,99628.13
2022-11-05T03:16:47.620Z,99630.25
2022-11-05T03:19:24.332Z,99636.03
2022-11-05T03:21:57.545Z,99631.53
2022-11-05T03:24:29.622Z,99638.88
2022-11-05T03:27:13.488Z,99643.38
2022-11-05T03:29:50.637Z,99654.25
2022-11-05T03:32:20.778Z,99659.59
2022-11-05T03:34:55.084Z,99651.44
2022-11-05T03:37:23.629Z,99657.50
2022-11-05T03:39:56.796Z,99658.22
2022-11-05T03:42:28.312Z,99646.34
2022-11-05T03:44:58.753Z,99644.38
2022-11-05T03:47:30.878Z,99649.75
2022-11-05T03:50:13.176Z,99653.28
2022-11-05T03:52:52.056Z,99656.09
2022-11-05T03:55:22.573Z,99663.97
2022-11-05T03:57:53.821Z,99666.09
2022-11-05T04:00:22.196Z,99667.78
2022-11-05T04:02:49.025Z,99663.00
2022-11-05T04:05:15.842Z,99654.94
2022-11-05T04:08:02.721Z,99647.75
2022-11-05T04:10:47.514Z,99641.69
2022-11-05T04:13:25.754Z,99639.59
2022-11-05T04:16:12.227Z,99637.47
2022-11-05T04:18:38.860Z,99642.97
2022-11-05T04:21:25.322Z,99647.91
2022-11-05T04:24:10.207Z,99649.72
2022-11-05T04:26:46.584Z,99652.00
2022-11-05T04:29:31.873Z,99644.91
2022-11-05T04:31:58.399Z,99641.41
2022-11-05T04:34:24.971Z,99630.81
2022-11-05T04:36:53.227Z,99635.31
2022-11-05T04:39:20.702Z,99630.38
2022-11-05T04:41:48.723Z,99639.41
2022-11-05T04:44:16.099Z,99631.38
2022-11-05T04:46:42.925Z,99637.16
2022-11-05T04:49:10.646Z,99635.31
2022-11-05T04:51:37.156Z,99632.06
2022-11-05T04:54:03.846Z,99644.66
2022-11-05T04:56:30.380Z,99645.63
2022-11-05T04:58:56.870Z,99644.22
2022-11-05T05:01:25.212Z,99647.75
2022-11-05T05:03:53.889Z,99647.88
2022-11-05T05:06:21.411Z,99645.22
2022-11-05T05:08:49.472Z,99645.22
2022-11-05T05:11:18.373Z,99637.16
2022-11-05T05:13:45.220Z,99639.00
2022-11-05T05:16:19.784Z,99647.31
2022-11-05T05:18:46.639Z,99636.19
2022-11-05T05:21:32.456Z,99638.00
2022-11-05T05:23:59.065Z,99646.03
2022-11-05T05:26:25.623Z,99655.06
2022-11-05T05:28:53.781Z,99655.94
2022-11-05T05:31:21.393Z,99662.84
2022-11-05T05:33:48.333Z,99658.47
2022-11-05T05:36:15.003Z,99666.53
2022-11-05T05:38:41.497Z,99668.34
2022-11-05T05:41:08.057Z,99672.03
2022-11-05T05:43:34.733Z,99673.28
2022-11-05T05:46:02.864Z,99671.28
2022-11-05T05:48:29.592Z,99677.66
2022-11-05T05:51:03.728Z,99676.25
2022-11-05T05:53:30.545Z,99681.75
2022-11-05T05:55:58.328Z,99689.34
2022-11-05T05:58:28.934Z,99698.94
2022-11-05T06:00:55.587Z,99696.25
2022-11-05T06:03:22.098Z,99702.06
2022-11-05T06:05:48.697Z,99721.66
2022-11-05T06:08:15.344Z,99722.50
2022-11-05T06:10:41.864Z,99721.66
2022-11-05T06:13:08.668Z,99726.88
2022-11-05T06:15:36.183Z,99734.94
2022-11-05T06:18:02.885Z,99733.66
2022-11-05T06:20:29.390Z,99726.88
2022-11-05T06:22:59.214Z,99729.97
2022-11-05T06:25:26.080Z,99739.72
2022-11-05T06:27:53.752Z,99739.84
2022-11-05T06:30:21.734Z,99740.13
2022-11-05T06:32:48.315Z,99740.25
2022-11-05T06:35:14.897Z,99748.03
2022-11-05T06:37:41.447Z,99739.28
2022-11-05T06:40:08.945Z,99742.41
2022-11-05T06:42:35.495Z,99745.06
2022-11-05T06:45:02.221Z,99740.28
2022-11-05T06:47:28.727Z,99740.84
2022-11-05T06:49:56.800Z,99744.09
2022-11-05T06:52:23.347Z,99754.69
2022-11-05T06:54:50.116Z,99753.59
2022-11-05T06:57:16.679Z,99756.13
2022-11-05T06:59:43.201Z,99758.41
2022-11-05T07:02:13.640Z,99753.47
2022-11-05T07:04:40.305Z,99755.88
2022-11-05T07:07:06.784Z,99757.16
2022-11-05T07:09:33.314Z,99752.22
2022-11-05T07:11:59.817Z,99759.97
2022-11-05T07:14:26.368Z,99765.53
2022-11-05T07:16:52.832Z,99761.88
2022-11-05T07:19:19.326Z,99766.13
2022-11-05T07:21:46.006Z,99770.50
2022-11-05T07:24:14.375Z,99768.22
2022-11-05T07:26:41.721Z,99765.41
2022-11-05T07:29:08.262Z,99774.69
2022-11-05T07:31:34.789Z,99775.81
2022-11-05T07:34:01.615Z,99767.75
2022-11-05T07:36:28.089Z,99773.69
2022-11-05T07:38:59.871Z,99771.00
2022-11-05T07:41:26.951Z,99780.78
2022-11-05T07:43:53.549Z,99768.38
2022-11-05T07:46:20.062Z,99769.22
2022-11-05T07:48:46.608Z,99775.72
2022-11-05T07:51:13.097Z,99781.91
2022-11-05T07:53:44.056Z,99771.19
2022-11-05T07:56:12.906Z,99774.47
2022-11-05T07:58:39.401Z,99766.97
2022-11-05T08:01:07.210Z,99773.91
2022-11-05T08:03:33.975Z,99775.47
2022-11-05T08:06:00.706Z,99775.03
2022-11-05T08:08:27.277Z,99759.91
2022-11-05T08:10:53.798Z,99759.22
2022-11-05T08:13:21.369Z,99761.03
2022-11-05T08:15:47.985Z,99759.47
2022-11-05T08:18:16.845Z,99762.72
2022-11-05T08:20:45.112Z,99752.81
2022-11-05T08:23:12.550Z,99742.34
2022-11-05T08:25:39.906Z,99744.47
2022-11-05T08:28:12.845Z,99747.41
2022-11-05T08:30:39.645Z,99737.78
2022-11-05T08:33:10.070Z,99745.69
2022-11-05T08:35:38.563Z,99742.53
2022-11-05T08:38:07.395Z,99738.25
2022-11-05T08:40:35.862Z,99749.28
2022-11-05T08:43:04.269Z,99748.53
2022-11-05T08:45:31.412Z,99753.75
2022-11-05T08:48:12.300Z,99747.00
2022-11-05T08:50:39.238Z,99751.63
2022-11-05T08:53:06.557Z,99753.06
2022-11-05T08:55:33.881Z,99755.59
2022-11-05T08:58:02.901Z,99756.16
2022-11-05T09:00:32.597Z,99769.03
2022-11-05T09:03:04.617Z,99769.22
2022-11-05T09:05:32.505Z,99777.44
2022-11-05T09:08:01.388Z,99783.41
2022-11-05T09:10:28.587Z,99773.66
2022-11-05T09:12:55.474Z,99777.31
2022-11-05T09:15:23.241Z,99785.13
2022-11-05T09:17:50.107Z,99787.94
2022-11-05T09:20:16.689Z,99800.22
2022-11-05T09:22:43.666Z,99790.47
2022-11-05T09:25:10.861Z,99788.63
2022-11-05T09:27:37.334Z,99788.31
2022-11-05T09:30:04.627Z,99790.88
2022-11-05T09:32:32.060Z,99791.97
2022-11-05T09:35:00.401Z,99789.41
2022-11-05T09:37:28.233Z,99783.19
2022-11-05T09:39:55.803Z,99784.31
2022-11-05T09:42:29.225Z,99782.34
2022-11-05T09:45:03.536Z,99777.81
2022-11-05T09:47:34.992Z,99766.59
2022-11-05T09:50:06.761Z,99767.41
2022-11-05T09:52:34.535Z,99773.03
2022-11-05T09:55:04.201Z,99770.03
2022-11-05T09:57:52.138Z,99783.84
2022-11-05T10:00:20.341Z,99784.88
2022-11-05T10:02:52.580Z,99787.69
2022-11-05T10:05:20.849Z,99777.31
2022-11-05T10:07:51.197Z,99779.56
2022-11-05T10:11:02.441Z,99785.72
2022-11-05T10:13:37.779Z,99787.66
2022-11-05T10:16:15.946Z,99785.19
2022-11-05T10:18:48.089Z,99784.16
2022-11-05T10:21:27.772Z,99789.78
2022-11-05T10:24:13.819Z,99778.91
2022-11-05T10:26:40.311Z,99781.34
2022-11-05T10:29:06.965Z,99769.16
2022-11-05T10:31:37.162Z,99766.06
2022-11-05T10:34:07.080Z,99779.22
2022-11-05T10:36:36.728Z,99778.78
2022-11-05T10:39:13.049Z,99770.28
2022-11-05T10:41:57.968Z,99778.03
2022-11-05T10:44:45.227Z,99781.00
2022-11-05T10:47:14.490Z,99788.13
2022-11-05T10:50:02.443Z,99790.41
2022-11-05T10:52:36.730Z,99791.66
2022-11-05T10:55:18.707Z,99790.03
2022-11-05T10:57:48.021Z,99802.88
2022-11-05T11:00:21.495Z,99805.13
2022-11-05T11:02:59.113Z,99807.66
2022-11-05T11:05:31.714Z,99812.56
2022-11-05T11:08:13.140Z,99815.75
2022-11-05T11:10:51.164Z,99819.50
2022-11-05T11:13:21.095Z,99815.63
2022-11-05T11:15:50.705Z,99817.16
2022-11-05T11:18:40.077Z,99812.09
2022-11-05T11:21:16.254Z,99814.84
2022-11-05T11:23:43.871Z,99803.69
2022-11-05T11:26:12.940Z,99804.03
2022-11-05T11:28:55.719Z,99803.19
2022-11-05T11:31:25.408Z,99805.03
2022-11-05T11:34:00.865Z,99812.31
2022-11-05T11:36:34.703Z,99812.13
2022-11-05T11:39:04.445Z,99810.56
2022-11-05T11:41:44.147Z,99805.78
2022-11-05T11:44:27.317Z,99802.56
2022-11-05T11:46:57.306Z,99806.09
2022-11-05T11:49:31.204Z,99805.31
2022-11-05T11:52:03.305Z,99807.19
2022-11-05T11:54:32.360Z,99814.44
2022-11-05T11:56:58.857Z,99811.72
2022-11-05T11:59:53.828Z,99812.91
2022-11-05T12:02:17.687Z,99821.06
2022-11-05T12:05:01.916Z,99827.03
2022-11-05T12:07:45.133Z,99809.97
2022-11-05T12:10:51.282Z,99816.69
2022-11-05T12:13:20.735Z,99816.69
2022-11-05T12:15:54.404Z,99816.88
2022-11-05T12:18:48.826Z,99815.53
2022-11-05T12:21:50.944Z,99824.13
2022-11-05T12:24:34.155Z,99832.59
2022-11-05T12:27:30.070Z,99844.75
2022-11-05T12:30:09.429Z,99848.13
2022-11-05T12:32:45.709Z,99855.91
2022-11-05T12:35:18.932Z,99845.03
2022-11-05T12:38:12.865Z,99839.47
2022-11-05T12:41:07.443Z,99844.38
2022-11-05T12:43:48.706Z,99845.06
2022-11-05T12:46:36.235Z,99849.09
2022-11-05T12:49:31.192Z,99858.72
2022-11-05T12:52:35.402Z,99868.16
2022-11-05T12:55:24.048Z,99868.47
2022-11-05T12:57:54.521Z,99872.84
2022-11-05T13:00:22.916Z,99876.34
2022-11-05T13:03:19.832Z,99864.22
2022-11-05T13:05:48.394Z,99876.19
2022-11-05T13:08:21.661Z,99870.28
2022-11-05T13:11:17.237Z,99871.16
2022-11-05T13:13:58.521Z,99884.41
2022-11-05T13:16:30.892Z,99886.47
2022-11-05T13:19:24.289Z,99886.25
2022-11-05T13:21:56.420Z,99882.28
2022-11-05T13:24:28.402Z,99890.81
2022-11-05T13:27:16.373Z,99895.91
2022-11-05T13:29:52.630Z,99897.75
2022-11-05T13:32:24.940Z,99898.38
2022-11-05T13:34:55.108Z,99899.75
2022-11-05T13:37:48.311Z,99900.16
2022-11-05T13:40:18.980Z,99904.41
2022-11-05T13:43:20.819Z,99889.25
2022-11-05T13:46:06.142Z,99901.00
2022-11-05T13:49:05.529Z,99896.19
2022-11-05T13:51:54.073Z,99898.44
2022-11-05T13:54:26.568Z,99904.38
2022-11-05T13:57:30.717Z,99902.44
2022-11-05T14:00:16.393Z,99907.16
2022-11-05T14:02:56.896Z,99911.53
2022-11-05T14:05:37.189Z,99894.22
2022-11-05T14:08:18.728Z,99902.22
2022-11-05T14:10:58.133Z,99903.00
2022-11-05T14:13:35.005Z,99902.84
2022-11-05T14:16:08.972Z,99905.75
2022-11-05T14:18:39.883Z,99906.53
2022-11-05T14:21:31.125Z,99909.78
2022-11-05T14:23:59.932Z,99918.88
2022-11-05T14:26:29.110Z,99919.41
2022-11-05T14:28:58.547Z,99922.72
2022-11-05T14:34:48.547Z,99927.28
2022-11-05T14:37:22.484Z,99921.72
2022-11-05T14:39:49.742Z,99927.09
2022-11-05T14:42:29.535Z,99924.94
2022-11-05T14:45:20.843Z,99935.19
2022-11-05T14:47:57.410Z,99936.53
2022-11-05T14:50:38.863Z,99940.81
2022-11-05T14:53:38.352Z,99942.00
2022-11-05T14:56:12.044Z,99944.28
2022-11-05T14:58:41.068Z,99950.13
2022-11-05T15:01:29.780Z,99945.28
2022-11-05T15:04:17.431Z,99953.53
2022-11-05T15:07:22.127Z,99947.97
2022-11-05T15:10:01.474Z,99942.50
2022-11-05T15:12:44.821Z,99961.28
2022-11-05T15:15:29.737Z,99948.50
2022-11-05T15:17:58.187Z,99955.44
2022-11-05T15:20:39.915Z,99952.88
2022-11-05T15:23:12.884Z,99954.19
2022-11-05T15:26:07.453Z,99952.50
2022-11-05T15:28:46.370Z,99961.03
2022-11-05T15:31:12.832Z,99960.09
2022-11-05T15:33:41.726Z,99956.53
2022-11-05T15:36:09.622Z,99958.28
2022-11-05T15:38:36.163Z,99967.50
2022-11-05T15:41:15.945Z,99977.94
2022-11-05T15:43:48.063Z,99970.88
2022-11-05T15:46:20.352Z,99978.09
2022-11-05T15:48:49.817Z,99981.66
2022-11-05T15:51:23.093Z,99984.25
2022-11-05T15:54:23.802Z,99987.63
2022-11-05T15:56:40.106Z,99981.38
2022-11-05T15:59:28.449Z,99979.00
2022-11-05T16:01:56.821Z,99981.59
2022-11-05T16:04:28.712Z,99992.53
2022-11-05T16:06:59.259Z,99999.28
2022-11-05T16:09:34.749Z,99997.31
2022-11-05T16:12:19.748Z,99998.31
2022-11-05T16:15:08.088Z,99999.59
2022-11-05T16:17:37.640Z,100007.97
2022-11-05T16:20:38.730Z,100013.22
2022-11-05T16:23:24.070Z,100017.47
2022-11-05T16:25:51.068Z,100018.31
2022-11-05T16:28:25.177Z,100024.53
2022-11-05T16:31:00.580Z,100024.53
2022-11-05T16:33:33.352Z,100031.91
2022-11-05T16:35:59.933Z,100031.19
2022-11-05T16:38:26.427Z,100033.06
2022-11-05T16:40:52.915Z,100032.50
2022-11-05T16:43:22.158Z,100033.66
2022-11-05T16:45:48.756Z,100043.16
2022-11-05T16:48:16.674Z,100034.69
2022-11-05T16:50:43.434Z,100044.16
2022-11-05T16:53:10.161Z,100043.56
2022-11-05T16:55:38.801Z,100050.09
2022-11-05T16:58:07.261Z,100051.94
2022-11-05T17:00:33.985Z,100050.41
2022-11-05T17:03:00.651Z,100055.66
2022-11-05T17:05:29.861Z,100057.34
2022-11-05T17:07:56.534Z,100059.09
2022-11-05T17:10:24.986Z,100062.47
2022-11-05T17:12:51.616Z,100064.28
2022-11-05T17:15:25.950Z,100059.09
2022-11-05T17:17:54.027Z,100068.72
2022-11-05T17:20:32.505Z,100063.59
2022-11-05T17:23:04.105Z,100064.75
2022-11-05T17:25:31.113Z,100066.75
2022-11-05T17:27:58.701Z,100069.56
2022-11-05T17:30:25.318Z,100072.94
2022-11-05T17:32:52.046Z,100077.78
2022-11-05T17:35:19.085Z,100074.81
2022-11-05T17:37:45.966Z,100077.06
2022-11-05T17:40:16.451Z,100081.19
2022-11-05T17:42:43.563Z,100085.13
2022-11-05T17:45:11.693Z,100083.25
2022-11-05T17:47:39.360Z,100086.97
2022-11-05T17:50:08.080Z,100087.53
2022-11-05T17:52:34.585Z,100084.28
2022-11-05T17:55:01.354Z,100088.25
2022-11-05T17:57:27.857Z,100089.53
2022-11-05T17:59:54.406Z,100089.66
2022-11-05T18:02:21.116Z,100091.34
2022-11-05T18:04:47.774Z,100094.03
2022-11-05T18:07:15.067Z,100091.34
2022-11-05T18:09:42.058Z,100093.34
2022-11-05T18:12:08.574Z,100100.72
2022-11-05T18:14:35.097Z,100101.69
2022-11-05T18:17:01.655Z,100103.41
2022-11-05T18:19:28.245Z,100112.75
2022-11-05T18:21:55.817Z,100114.03
2022-11-05T18:24:22.880Z,100121.41
2022-11-05T18:26:49.874Z,100126.47
2022-11-05T18:29:16.566Z,100131.84
2022-11-05T18:31:43.083Z,100132.97
2022-11-05T18:34:10.404Z,100129.72
2022-11-05T18:36:36.981Z,100134.97
2022-11-05T18:39:05.187Z,100136.81
2022-11-05T18:41:31.798Z,100138.78
2022-11-05T18:43:59.979Z,100140.22
2022-11-05T18:46:56.055Z,100149.00
2022-11-05T18:49:14.393Z,100154.81
2022-11-05T18:51:41.172Z,100159.44
2022-11-05T18:54:08.582Z,100153.38
2022-11-05T18:56:35.657Z,100155.22
2022-11-05T18:59:30.146Z,100163.13
2022-11-05T19:01:48.872Z,100165.69
2022-11-05T19:04:15.481Z,100175.59
2022-11-05T19:06:42.589Z,100172.06
2022-11-05T19:09:12.031Z,100177.88
2022-11-05T19:11:39.714Z,100180.28
2022-11-05T19:14:06.297Z,100181.13
2022-11-05T19:16:33.214Z,100183.97
2022-11-05T19:19:02.368Z,100179.69
2022-11-05T19:21:29.040Z,100188.63
2022-11-05T19:24:00.150Z,100193.56
2022-11-05T19:26:28.979Z,100195.41
2022-11-05T19:28:58.786Z,100193.72
2022-11-05T19:31:25.317Z,100199.41
2022-11-05T19:33:52.817Z,100199.09
2022-11-05T19:36:22.132Z,100204.59
2022-11-05T19:38:53.234Z,100205.59
2022-11-05T19:41:19.923Z,100204.16
2022-11-05T19:43:46.768Z,100208.44
2022-11-05T19:46:16.389Z,100210.16
2022-11-05T19:48:44.193Z,100214.94
2022-11-05T19:51:17.455Z,100219.34
2022-11-05T19:53:43.992Z,100217.63
2022-11-05T19:56:16.435Z,100220.19
2022-11-05T19:58:43.874Z,100233.50
2022-11-05T20:01:12.517Z,100232.38
2022-11-05T20:03:39.650Z,100234.50
2022-11-05T20:06:09.168Z,100242.97
2022-11-05T20:08:47.787Z,100249.19
2022-11-05T20:11:23.017Z,100245.38
2022-11-05T20:13:49.604Z,100241.44
2022-11-05T20:16:26.575Z,100251.63
2022-11-05T20:18:53.275Z,100245.94
2022-11-05T20:21:20.176Z,100252.31
2022-11-05T20:23:47.608Z,100245.13
2022-11-05T20:26:14.956Z,100258.69
2022-11-05T20:28:43.787Z,100270.28
2022-11-05T20:31:13.569Z,100269.59
2022-11-05T20:33:41.142Z,100270.56
2022-11-05T20:36:12.532Z,100272.56
2022-11-05T20:38:39.442Z,100272.69
2022-11-05T20:41:10.741Z,100276.78
2022-11-05T20:43:38.752Z,100271.56
2022-11-05T20:46:05.334Z,100276.22
2022-11-05T20:48:34.893Z,100280.88
2022-11-05T20:51:10.233Z,100280.03
2022-11-05T20:53:37.707Z,100283.84
2022-11-05T20:56:08.494Z,100284.13
2022-11-05T20:58:36.656Z,100284.13
2022-11-05T21:01:04.937Z,100281.56
2022-11-05T21:03:31.489Z,100284.25
2022-11-05T21:05:59.989Z,100290.63
2022-11-05T21:08:29.417Z,100290.06
2022-11-05T21:10:56.812Z,100298.16
2022-11-05T21:13:24.138Z,100289.09
2022-11-05T21:15:53.055Z,100296.31
2022-11-05T21:18:21.207Z,100294.22
2022-11-05T21:20:48.130Z,100296.59
2022-11-05T21:23:15.492Z,100298.47
2022-11-05T21:25:43.059Z,100293.91
2022-11-05T21:28:11.467Z,100294.22
2022-11-05T21:30:41.799Z,100297.03
2022-11-05T21:33:08.926Z,100296.31
2022-11-05T21:35:40.508Z,100295.47
2022-11-05T21:38:10.289Z,100299.97
2022-11-05T21:40:37.434Z,100293.47
2022-11-05T21:43:05.324Z,100300.13
2022-11-05T21:45:31.833Z,100295.47
2022-11-05T21:47:58.524Z,100304.50
2022-11-05T21:50:45.244Z,100299.13
2022-11-05T21:53:34.693Z,100312.59
2022-11-05T21:56:24.541Z,100304.38
2022-11-05T21:59:09.876Z,100305.22
2022-11-05T22:01:36.494Z,100309.59
2022-11-05T22:04:03.512Z,100305.22
2022-11-05T22:06:33.047Z,100306.22
2022-11-05T22:08:59.882Z,100304.50
2022-11-05T22:11:26.386Z,100306.75
2022-11-05T22:13:53.180Z,100310.84
2022-11-05T22:16:19.750Z,100307.00
2022-11-05T22:18:46.340Z,100312.66
2022-11-05T22:21:18.442Z,100312.53
2022-11-05T22:23:45.063Z,100315.81
2022-11-05T22:26:11.629Z,100310.44
2022-11-05T22:28:38.099Z,100310.69
2022-11-05T22:31:04.637Z,100306.75
2022-11-05T22:33:31.567Z,100318.22
2022-11-05T22:35:58.093Z,100314.94
2022-11-05T22:38:24.590Z,100315.34
2022-11-05T22:40:51.069Z,100312.81
2022-11-05T22:43:17.583Z,100312.81
2022-11-05T22:45:44.142Z,100317.34
2022-11-05T22:48:11.004Z,100314.94
2022-11-05T22:50:38.158Z,100323.00
2022-11-05T22:53:04.654Z,100312.66
2022-11-05T22:55:31.208Z,100317.91
2022-11-05T22:57:57.723Z,100318.91
2022-11-05T23:00:35.851Z,100329.50
2022-11-05T23:03:03.030Z,100328.94
2022-11-05T23:05:30.067Z,100332.72
2022-11-05T23:08:15.391Z,100323.69
2022-11-05T23:11:00.843Z,100330.91
2022-11-05T23:13:27.399Z,100331.03
2022-11-05T23:16:12.449Z,100329.91
2022-11-05T23:18:57.337Z,100330.34
2022-11-05T23:21:42.198Z,100333.28
2022-11-05T23:24:08.794Z,100343.03
2022-11-05T23:26:50.265Z,100342.91
2022-11-05T23:29:19.253Z,100342.78
2022-11-05T23:32:04.057Z,100340.22
2022-11-05T23:34:30.624Z,100335.72
2022-11-05T23:37:16.265Z,100332.72
2022-11-05T23:39:43.122Z,100342.38
2022-11-05T23:42:29.212Z,100343.50
2022-11-05T23:45:14.786Z,100346.19
2022-11-05T23:48:00.754Z,100340.81
2022-11-05T23:50:27.983Z,100353.41
2022-11-05T23:52:55.570Z,100344.34
2022-11-05T23:55:23.253Z,100346.59
2022-11-05T23:57:50.317Z,100341.34
